Midnight Sun — CFG7615 — position and weather

sailwx.info

Track history (hours):
 
Tides and Currents Weather Stations Pressure Air Temp Water Temp Dewpoint Dewpoint Depression Visibility Wind Speed Wind Dir Waves Ship Positions

Midnight Sun

Last reported at 2015-May-03 20:28 UTC. Time now 2015-May-03 21:57 UTC.
Position N 48°36' W 123°14'.

Length 25 m; draft 3.1 m.

Type: Pleasure craft. MMSI: 316001152.

Date/timePositionNaut miles runAvg speedWind from/ knotsBaromVisibWave heightAir tempDewpointWater temp
2015-May-03 20:28N 48°36' W 123°14'7 7.5
2015-May-03 19:32N 48°30' W 123°10'39 9.7
2015-May-03 15:30N 47°58' W 122°34'1010.1
2015-May-03 14:33N 47°50' W 122°27'1 8.7
2015-May-03 14:24N 47°49' W 122°27'7 8.6
2015-May-03 13:33N 47°42' W 122°25'0 0.0
2015-May-03 13:33N 47°42' W 122°25'1 0.6
2015-May-03 12:07N 47°41' W 122°24'0 0.0
2015-May-03 12:07N 47°41' W 122°24'0 0.0
2015-May-03 11:31N 47°41' W 122°24'0 0.0
2015-May-03 11:22N 47°41' W 122°24'0 0.0
2015-May-03 10:31N 47°41' W 122°24'0 0.0
2015-May-03 09:31N 47°41' W 122°24'0 0.0
2015-May-03 08:31N 47°41' W 122°24'0 0.0
2015-May-03 08:31N 47°41' W 122°24'0 0.0
2015-May-03 07:31N 47°41' W 122°24'0 0.0
2015-May-03 06:25N 47°41' W 122°24'0 0.0
2015-May-03 06:25N 47°41' W 122°24'0 0.0
2015-May-03 05:25N 47°41' W 122°24'0 0.0
2015-May-03 05:22N 47°41' W 122°24'0 0.0
2015-May-03 04:25N 47°41' W 122°24'0 0.0
2015-May-03 04:25N 47°41' W 122°24'0 0.0
2015-May-03 03:19N 47°41' W 122°24'0 0.0
2015-May-03 03:19N 47°41' W 122°24'1 1.1
2015-May-03 02:27N 47°40' W 122°24'0 1.1
2015-May-03 02:25N 47°40' W 122°24'0 0.4
2015-May-03 01:33N 47°40' W 122°23'0 0.2
2015-May-03 01:24N 47°40' W 122°23'3 2.9
2015-May-03 00:32N 47°39' W 122°20'1 0.7
2015-May-02 22:18N 47°39' W 122°18'3 2.2
2015-May-02 21:07N 47°40' W 122°15'1 2.3
2015-May-02 20:33N 47°40' W 122°13'0 8.3
2015-May-02 20:30N 47°41' W 122°13'4 0.5
2015-May-02 12:31N 47°39' W 122°19'0 0.0
2015-May-02 06:31N 47°39' W 122°19'0 0.0
2015-May-01 22:52N 47°39' W 122°19'0 0.0
2015-May-01 05:29N 47°39' W 122°19'0 0.0
2015-May-01 04:29N 47°39' W 122°19'0 0.0
2015-May-01 03:23N 47°39' W 122°19'0 0.0
2015-May-01 02:26N 47°39' W 122°19'0 0.0
2015-Apr-30 19:53N 47°39' W 122°19'1 0.1
2015-Apr-30 00:33N 47°38' W 122°20'1 0.3
2015-Apr-29 22:30N 47°39' W 122°21'0 0.0
2015-Apr-29 22:20N 47°39' W 122°21'2 2.9
2015-Apr-29 21:30N 47°40' W 122°24'0 0.0
2015-Apr-29 21:21N 47°40' W 122°24'4 4.8
2015-Apr-29 20:33N 47°44' W 122°25'0 8.5
2015-Apr-29 20:31N 47°44' W 122°25'44 0.9
2015-Apr-27 21:30N 48°23' W 122°55'8 8.7
2015-Apr-27 20:33N 48°31' W 122°58'11 7.7
2015-Apr-27 19:10N 48°41' W 122°60'14 8.7
2015-Apr-27 17:33N 48°55' W 123°06'8 8.0
2015-Apr-27 16:32N 49°01' W 123°14'6 6.3
2015-Apr-27 15:33N 49°07' W 123°16'1010.2
2015-Apr-27 14:33N 49°09' W 123°00'2 1.9
2015-Apr-27 13:32N 49°10' W 122°58'0 0.0
2015-Apr-27 12:32N 49°10' W 122°58'0 0.0
2015-Apr-27 11:32N 49°10' W 122°58'0 0.0
2015-Apr-27 10:32N 49°10' W 122°58'0 0.0
2015-Apr-27 09:32N 49°10' W 122°58'0 0.0
2015-Apr-27 08:32N 49°10' W 122°58'0 0.0
2015-Apr-27 07:32N 49°10' W 122°58'0 0.0
2015-Apr-27 06:32N 49°10' W 122°58'0 0.0
2015-Apr-27 05:32N 49°10' W 122°58'0 0.0
2015-Apr-27 04:32N 49°10' W 122°58'0 0.0
2015-Apr-27 03:32N 49°10' W 122°58'0 0.0
2015-Apr-27 02:32N 49°10' W 122°58'0 0.0
2015-Apr-27 01:32N 49°10' W 122°58'0 0.0
2015-Apr-27 00:32N 49°10' W 122°58'0 0.0
2015-Apr-26 23:32N 49°10' W 122°58'0 0.0
2015-Apr-26 22:32N 49°10' W 122°58'0 0.0
2015-Apr-26 21:32N 49°10' W 122°58'0 0.0
2015-Apr-26 20:32N 49°10' W 122°58'0 0.0
2015-Apr-26 19:32N 49°10' W 122°58'0 0.0
2015-Apr-26 18:29N 49°10' W 122°58'0 0.0
2015-Apr-26 17:32N 49°10' W 122°58'0 0.0
2015-Apr-26 16:32N 49°10' W 122°58'0 0.0
2015-Apr-26 15:32N 49°10' W 122°58'0 0.0
2015-Apr-26 14:32N 49°10' W 122°58'0 0.0
2015-Apr-26 13:32N 49°10' W 122°58'0 0.0
2015-Apr-26 12:32N 49°10' W 122°58'0 0.0
2015-Apr-26 11:32N 49°10' W 122°58'0 0.0
2015-Apr-26 10:32N 49°10' W 122°58'0 0.0
2015-Apr-26 09:32N 49°10' W 122°58'0 0.0
2015-Apr-26 08:32N 49°10' W 122°58'0 0.0
2015-Apr-26 07:32N 49°10' W 122°58'0 0.0
2015-Apr-26 06:32N 49°10' W 122°58'0 0.0
2015-Apr-26 05:29N 49°10' W 122°58'0 0.0
2015-Apr-26 04:32N 49°10' W 122°58'0 0.0
2015-Apr-26 03:32N 49°10' W 122°58'0 0.0
2015-Apr-26 02:32N 49°10' W 122°58'0 0.0
2015-Apr-26 01:32N 49°10' W 122°58'0 0.0
2015-Apr-26 00:32N 49°10' W 122°58'0 0.0
2015-Apr-25 23:32N 49°10' W 122°58'0 0.0
2015-Apr-25 22:29N 49°10' W 122°58'0 0.0
2015-Apr-25 21:32N 49°10' W 122°58'0 0.0
2015-Apr-25 20:32N 49°10' W 122°58'0 0.0
2015-Apr-25 19:32N 49°10' W 122°58'0 0.0
2015-Apr-25 18:29N 49°10' W 122°58'0 0.0
2015-Apr-25 17:32N 49°10' W 122°58'0 0.0
2015-Apr-25 16:32N 49°10' W 122°58'0 0.0
2015-Apr-25 15:32N 49°10' W 122°58'0 0.0
2015-Apr-25 14:32N 49°10' W 122°58'0 0.0
2015-Apr-25 13:32N 49°10' W 122°58'0 0.0
2015-Apr-25 12:32N 49°10' W 122°58'0 0.0
2015-Apr-25 11:32N 49°10' W 122°58'0 0.0
2015-Apr-25 10:33N 49°10' W 122°58'0 0.0
2015-Apr-25 09:34N 49°10' W 122°58'0 0.0
2015-Apr-25 08:33N 49°10' W 122°58'0 0.0
2015-Apr-25 07:33N 49°10' W 122°58'0 0.0
2015-Apr-25 06:30N 49°10' W 122°58'0 0.0
2015-Apr-25 05:34N 49°10' W 122°58'0 0.0
2015-Apr-25 04:34N 49°10' W 122°58'0 0.0
2015-Apr-25 03:33N 49°10' W 122°58'0 0.0
2015-Apr-25 02:33N 49°10' W 122°58'0 0.0
2015-Apr-25 01:33N 49°10' W 122°58'0 0.0
2015-Apr-24 22:34N 49°10' W 122°58'0 0.0
2015-Apr-24 21:31N 49°10' W 122°58'0 0.0
2015-Apr-24 20:29N 49°10' W 122°58'0 0.0
2015-Apr-24 19:26N 49°10' W 122°58'0 0.0
2015-Apr-24 18:33N 49°10' W 122°58'0 0.0
2015-Apr-24 17:33N 49°10' W 122°58'0 0.0
2015-Apr-24 16:33N 49°10' W 122°58'0 0.0
2015-Apr-24 15:30N 49°10' W 122°58'0 0.0
2015-Apr-24 14:33N 49°10' W 122°58'0 0.0
2015-Apr-24 13:32N 49°10' W 122°58'0 0.0
2015-Apr-24 12:32N 49°10' W 122°58'0 0.0
2015-Apr-24 11:32N 49°10' W 122°58'0 0.0
2015-Apr-24 10:32N 49°10' W 122°58'0 0.0
2015-Apr-24 09:32N 49°10' W 122°58'0 0.0
2015-Apr-24 08:32N 49°10' W 122°58'0 0.0
2015-Apr-24 07:32N 49°10' W 122°58'0 0.0
2015-Apr-24 06:29N 49°10' W 122°58'0 0.0
2015-Apr-24 05:32N 49°10' W 122°58'0 0.0
2015-Apr-24 04:32N 49°10' W 122°58'0 0.0
2015-Apr-24 03:32N 49°10' W 122°58'  
Track history (hours):
 
Tides and Currents Weather Stations Pressure Air Temp Water Temp Dewpoint Dewpoint Depression Visibility Wind Speed Wind Dir Waves Ship Positions

Midnight Sun

Last reported at 2015-May-03 20:28 UTC. Time now 2015-May-03 21:57 UTC.
Position N 48°36' W 123°14'.

Length 25 m; draft 3.1 m.

Type: Pleasure craft. MMSI: 316001152.

Date/timePositionNaut miles runAvg speedWind from/ knotsBaromVisibWave heightAir tempDewpointWater temp
2015-May-03 20:28N 48°36' W 123°14'7 7.5
2015-May-03 19:32N 48°30' W 123°10'39 9.7
2015-May-03 15:30N 47°58' W 122°34'1010.1
2015-May-03 14:33N 47°50' W 122°27'1 8.7
2015-May-03 14:24N 47°49' W 122°27'7 8.6
2015-May-03 13:33N 47°42' W 122°25'0 0.0
2015-May-03 13:33N 47°42' W 122°25'1 0.6
2015-May-03 12:07N 47°41' W 122°24'0 0.0
2015-May-03 12:07N 47°41' W 122°24'0 0.0
2015-May-03 11:31N 47°41' W 122°24'0 0.0
2015-May-03 11:22N 47°41' W 122°24'0 0.0
2015-May-03 10:31N 47°41' W 122°24'0 0.0
2015-May-03 09:31N 47°41' W 122°24'0 0.0
2015-May-03 08:31N 47°41' W 122°24'0 0.0
2015-May-03 08:31N 47°41' W 122°24'0 0.0
2015-May-03 07:31N 47°41' W 122°24'0 0.0
2015-May-03 06:25N 47°41' W 122°24'0 0.0
2015-May-03 06:25N 47°41' W 122°24'0 0.0
2015-May-03 05:25N 47°41' W 122°24'0 0.0
2015-May-03 05:22N 47°41' W 122°24'0 0.0
2015-May-03 04:25N 47°41' W 122°24'0 0.0
2015-May-03 04:25N 47°41' W 122°24'0 0.0
2015-May-03 03:19N 47°41' W 122°24'0 0.0
2015-May-03 03:19N 47°41' W 122°24'1 1.1
2015-May-03 02:27N 47°40' W 122°24'0 1.1
2015-May-03 02:25N 47°40' W 122°24'0 0.4
2015-May-03 01:33N 47°40' W 122°23'0 0.2
2015-May-03 01:24N 47°40' W 122°23'3 2.9
2015-May-03 00:32N 47°39' W 122°20'1 0.7
2015-May-02 22:18N 47°39' W 122°18'3 2.2
2015-May-02 21:07N 47°40' W 122°15'1 2.3
2015-May-02 20:33N 47°40' W 122°13'0 8.3
2015-May-02 20:30N 47°41' W 122°13'4 0.5
2015-May-02 12:31N 47°39' W 122°19'0 0.0
2015-May-02 06:31N 47°39' W 122°19'0 0.0
2015-May-01 22:52N 47°39' W 122°19'0 0.0
2015-May-01 05:29N 47°39' W 122°19'0 0.0
2015-May-01 04:29N 47°39' W 122°19'0 0.0
2015-May-01 03:23N 47°39' W 122°19'0 0.0
2015-May-01 02:26N 47°39' W 122°19'0 0.0
2015-Apr-30 19:53N 47°39' W 122°19'1 0.1
2015-Apr-30 00:33N 47°38' W 122°20'1 0.3
2015-Apr-29 22:30N 47°39' W 122°21'0 0.0
2015-Apr-29 22:20N 47°39' W 122°21'2 2.9
2015-Apr-29 21:30N 47°40' W 122°24'0 0.0
2015-Apr-29 21:21N 47°40' W 122°24'4 4.8
2015-Apr-29 20:33N 47°44' W 122°25'0 8.5
2015-Apr-29 20:31N 47°44' W 122°25'44 0.9
2015-Apr-27 21:30N 48°23' W 122°55'8 8.7
2015-Apr-27 20:33N 48°31' W 122°58'11 7.7
2015-Apr-27 19:10N 48°41' W 122°60'14 8.7
2015-Apr-27 17:33N 48°55' W 123°06'8 8.0
2015-Apr-27 16:32N 49°01' W 123°14'6 6.3
2015-Apr-27 15:33N 49°07' W 123°16'1010.2
2015-Apr-27 14:33N 49°09' W 123°00'2 1.9
2015-Apr-27 13:32N 49°10' W 122°58'0 0.0
2015-Apr-27 12:32N 49°10' W 122°58'0 0.0
2015-Apr-27 11:32N 49°10' W 122°58'0 0.0
2015-Apr-27 10:32N 49°10' W 122°58'0 0.0
2015-Apr-27 09:32N 49°10' W 122°58'0 0.0
2015-Apr-27 08:32N 49°10' W 122°58'0 0.0
2015-Apr-27 07:32N 49°10' W 122°58'0 0.0
2015-Apr-27 06:32N 49°10' W 122°58'0 0.0
2015-Apr-27 05:32N 49°10' W 122°58'0 0.0
2015-Apr-27 04:32N 49°10' W 122°58'0 0.0
2015-Apr-27 03:32N 49°10' W 122°58'0 0.0
2015-Apr-27 02:32N 49°10' W 122°58'0 0.0
2015-Apr-27 01:32N 49°10' W 122°58'0 0.0
2015-Apr-27 00:32N 49°10' W 122°58'0 0.0
2015-Apr-26 23:32N 49°10' W 122°58'0 0.0
2015-Apr-26 22:32N 49°10' W 122°58'0 0.0
2015-Apr-26 21:32N 49°10' W 122°58'0 0.0
2015-Apr-26 20:32N 49°10' W 122°58'0 0.0
2015-Apr-26 19:32N 49°10' W 122°58'0 0.0
2015-Apr-26 18:29N 49°10' W 122°58'0 0.0
2015-Apr-26 17:32N 49°10' W 122°58'0 0.0
2015-Apr-26 16:32N 49°10' W 122°58'0 0.0
2015-Apr-26 15:32N 49°10' W 122°58'0 0.0
2015-Apr-26 14:32N 49°10' W 122°58'0 0.0
2015-Apr-26 13:32N 49°10' W 122°58'0 0.0
2015-Apr-26 12:32N 49°10' W 122°58'0 0.0
2015-Apr-26 11:32N 49°10' W 122°58'0 0.0
2015-Apr-26 10:32N 49°10' W 122°58'0 0.0
2015-Apr-26 09:32N 49°10' W 122°58'0 0.0
2015-Apr-26 08:32N 49°10' W 122°58'0 0.0
2015-Apr-26 07:32N 49°10' W 122°58'0 0.0
2015-Apr-26 06:32N 49°10' W 122°58'0 0.0
2015-Apr-26 05:29N 49°10' W 122°58'0 0.0
2015-Apr-26 04:32N 49°10' W 122°58'0 0.0
2015-Apr-26 03:32N 49°10' W 122°58'0 0.0
2015-Apr-26 02:32N 49°10' W 122°58'0 0.0
2015-Apr-26 01:32N 49°10' W 122°58'0 0.0
2015-Apr-26 00:32N 49°10' W 122°58'0 0.0
2015-Apr-25 23:32N 49°10' W 122°58'0 0.0
2015-Apr-25 22:29N 49°10' W 122°58'0 0.0
2015-Apr-25 21:32N 49°10' W 122°58'0 0.0
2015-Apr-25 20:32N 49°10' W 122°58'0 0.0
2015-Apr-25 19:32N 49°10' W 122°58'0 0.0
2015-Apr-25 18:29N 49°10' W 122°58'0 0.0
2015-Apr-25 17:32N 49°10' W 122°58'0 0.0
2015-Apr-25 16:32N 49°10' W 122°58'0 0.0
2015-Apr-25 15:32N 49°10' W 122°58'0 0.0
2015-Apr-25 14:32N 49°10' W 122°58'0 0.0
2015-Apr-25 13:32N 49°10' W 122°58'0 0.0
2015-Apr-25 12:32N 49°10' W 122°58'0 0.0
2015-Apr-25 11:32N 49°10' W 122°58'0 0.0
2015-Apr-25 10:33N 49°10' W 122°58'0 0.0
2015-Apr-25 09:34N 49°10' W 122°58'0 0.0
2015-Apr-25 08:33N 49°10' W 122°58'0 0.0
2015-Apr-25 07:33N 49°10' W 122°58'0 0.0
2015-Apr-25 06:30N 49°10' W 122°58'0 0.0
2015-Apr-25 05:34N 49°10' W 122°58'0 0.0
2015-Apr-25 04:34N 49°10' W 122°58'0 0.0
2015-Apr-25 03:33N 49°10' W 122°58'0 0.0
2015-Apr-25 02:33N 49°10' W 122°58'0 0.0
2015-Apr-25 01:33N 49°10' W 122°58'0 0.0
2015-Apr-24 22:34N 49°10' W 122°58'0 0.0
2015-Apr-24 21:31N 49°10' W 122°58'0 0.0
2015-Apr-24 20:29N 49°10' W 122°58'0 0.0
2015-Apr-24 19:26N 49°10' W 122°58'0 0.0
2015-Apr-24 18:33N 49°10' W 122°58'0 0.0
2015-Apr-24 17:33N 49°10' W 122°58'0 0.0
2015-Apr-24 16:33N 49°10' W 122°58'0 0.0
2015-Apr-24 15:30N 49°10' W 122°58'0 0.0
2015-Apr-24 14:33N 49°10' W 122°58'0 0.0
2015-Apr-24 13:32N 49°10' W 122°58'0 0.0
2015-Apr-24 12:32N 49°10' W 122°58'0 0.0
2015-Apr-24 11:32N 49°10' W 122°58'0 0.0
2015-Apr-24 10:32N 49°10' W 122°58'0 0.0
2015-Apr-24 09:32N 49°10' W 122°58'0 0.0
2015-Apr-24 08:32N 49°10' W 122°58'0 0.0
2015-Apr-24 07:32N 49°10' W 122°58'0 0.0
2015-Apr-24 06:29N 49°10' W 122°58'0 0.0
2015-Apr-24 05:32N 49°10' W 122°58'0 0.0
2015-Apr-24 04:32N 49°10' W 122°58'0 0.0
2015-Apr-24 03:32N 49°10' W 122°58'  

Dump ship's entire track history